createdAt,value
2022-11-20T00:02:23.146Z,8.13
2022-11-20T00:04:49.429Z,9.18
2022-11-20T00:07:15.347Z,8.05
2022-11-20T00:09:41.150Z,8.82
2022-11-20T00:12:06.993Z,8.32
2022-11-20T00:14:32.699Z,8.80
2022-11-20T00:16:58.461Z,9.57
2022-11-20T00:19:24.131Z,9.70
2022-11-20T00:21:51.628Z,8.82
2022-11-20T00:24:17.444Z,8.60
2022-11-20T00:26:43.148Z,9.20
2022-11-20T00:29:10.433Z,9.88
2022-11-20T00:31:36.108Z,8.77
2022-11-20T00:34:01.869Z,9.05
2022-11-20T00:36:28.961Z,8.93
2022-11-20T00:38:58.671Z,7.97
2022-11-20T00:41:25.844Z,7.50
2022-11-20T00:43:53.188Z,8.23
2022-11-20T00:46:21.685Z,8.65
2022-11-20T00:48:47.956Z,8.50
2022-11-20T00:51:16.020Z,8.25
2022-11-20T00:53:42.267Z,7.40
2022-11-20T00:56:11.534Z,7.35
2022-11-20T00:58:38.800Z,7.38
2022-11-20T01:01:04.623Z,7.88
2022-11-20T01:03:38.994Z,8.25
2022-11-20T01:06:16.202Z,8.48
2022-11-20T01:08:42.309Z,8.30
2022-11-20T01:11:11.704Z,8.40
2022-11-20T01:13:37.556Z,7.93
2022-11-20T01:16:15.341Z,8.75
2022-11-20T01:18:44.311Z,8.05
2022-11-20T01:21:16.570Z,7.97
2022-11-20T01:23:43.741Z,8.43
2022-11-20T01:26:12.025Z,9.00
2022-11-20T01:28:39.673Z,8.90
2022-11-20T01:31:20.236Z,7.95
2022-11-20T01:33:47.726Z,8.55
2022-11-20T01:36:14.658Z,8.30
2022-11-20T01:38:40.434Z,8.38
2022-11-20T01:41:07.549Z,8.20
2022-11-20T01:43:34.345Z,7.78
2022-11-20T01:46:18.408Z,9.63
2022-11-20T01:49:11.114Z,7.38
2022-11-20T01:51:45.022Z,7.35
2022-11-20T01:59:12.323Z,8.18
2022-11-20T02:01:39.406Z,8.38
2022-11-20T02:04:07.186Z,8.93
2022-11-20T02:09:04.542Z,7.53
2022-11-20T02:11:30.986Z,8.15
2022-11-20T02:13:57.218Z,8.18
2022-11-20T02:16:39.068Z,8.40
2022-11-20T02:19:12.985Z,8.50
2022-11-20T02:24:15.714Z,7.60
2022-11-20T02:26:51.331Z,7.93
2022-11-20T02:29:22.989Z,9.15
2022-11-20T02:31:48.901Z,7.60
2022-11-20T02:34:14.585Z,8.15
2022-11-20T02:36:41.753Z,8.20
2022-11-20T02:39:09.203Z,8.82
2022-11-20T02:41:37.328Z,8.77
2022-11-20T02:44:04.432Z,8.43
2022-11-20T02:46:30.952Z,7.97
2022-11-20T02:48:56.707Z,8.57
2022-11-20T02:51:22.784Z,8.07
2022-11-20T02:53:48.701Z,8.90
2022-11-20T02:56:14.671Z,8.00
2022-11-20T02:58:40.355Z,7.80
2022-11-20T03:01:06.082Z,7.97
2022-11-20T03:03:31.999Z,7.68
2022-11-20T03:05:59.715Z,7.97
2022-11-20T03:08:26.149Z,8.10
2022-11-20T03:10:52.199Z,8.15
2022-11-20T03:13:18.013Z,8.20
2022-11-20T03:15:43.700Z,8.30
2022-11-20T03:18:09.387Z,7.55
2022-11-20T03:20:35.117Z,8.48
2022-11-20T03:23:01.592Z,7.57
2022-11-20T03:25:27.657Z,7.72
2022-11-20T03:27:54.361Z,7.35
2022-11-20T03:30:20.136Z,8.15
2022-11-20T03:32:46.319Z,7.72
2022-11-20T03:35:11.993Z,8.20
2022-11-20T03:37:37.648Z,7.63
2022-11-20T03:40:04.221Z,7.85
2022-11-20T03:42:48.076Z,7.40
2022-11-20T03:45:15.807Z,7.50
2022-11-20T03:47:42.133Z,8.02
2022-11-20T03:50:09.364Z,8.25
2022-11-20T03:52:35.033Z,7.75
2022-11-20T03:55:00.876Z,8.55
2022-11-20T03:57:26.681Z,7.80
2022-11-20T03:59:52.376Z,7.82
2022-11-20T04:02:18.426Z,7.85
2022-11-20T04:04:44.502Z,8.20
2022-11-20T04:07:10.252Z,8.25
2022-11-20T04:09:36.031Z,9.13
2022-11-20T04:12:01.721Z,8.00
2022-11-20T04:14:27.384Z,8.48
2022-11-20T04:16:53.242Z,8.35
2022-11-20T04:19:19.355Z,7.70
2022-11-20T04:21:45.679Z,7.97
2022-11-20T04:24:11.928Z,6.82
2022-11-20T04:26:38.691Z,7.60
2022-11-20T04:29:04.406Z,7.88
2022-11-20T04:31:33.137Z,7.45
2022-11-20T04:34:04.204Z,7.63
2022-11-20T04:36:30.718Z,22.90
2022-11-20T04:39:02.012Z,15.85
2022-11-20T04:41:30.472Z,11.20
2022-11-20T04:44:03.281Z,12.07
2022-11-20T04:46:31.192Z,8.20
2022-11-20T04:48:57.154Z,9.52
2022-11-20T04:51:23.110Z,7.63
2022-11-20T04:53:49.069Z,8.98
2022-11-20T04:56:15.553Z,7.53
2022-11-20T04:58:41.992Z,7.15
2022-11-20T05:01:12.226Z,9.32
2022-11-20T05:03:42.305Z,8.63
2022-11-20T05:06:10.301Z,7.57
2022-11-20T05:08:36.013Z,8.95
2022-11-20T05:11:10.303Z,13.15
2022-11-20T05:13:37.113Z,13.73
2022-11-20T05:16:09.063Z,11.63
2022-11-20T05:18:35.767Z,10.23
2022-11-20T05:21:01.887Z,9.55
2022-11-20T05:23:29.099Z,8.98
2022-11-20T05:25:59.167Z,7.20
2022-11-20T05:28:27.500Z,6.32
2022-11-20T05:30:53.270Z,6.93
2022-11-20T05:33:19.332Z,6.47
2022-11-20T05:35:45.026Z,8.35
2022-11-20T05:38:10.704Z,8.13
2022-11-20T05:40:36.416Z,6.70
2022-11-20T05:43:02.607Z,6.75
2022-11-20T05:45:28.542Z,6.63
2022-11-20T05:47:57.500Z,7.15
2022-11-20T05:50:23.190Z,7.03
2022-11-20T05:52:48.855Z,6.65
2022-11-20T05:55:14.764Z,6.63
2022-11-20T05:57:40.447Z,7.63
2022-11-20T06:00:06.833Z,6.50
2022-11-20T06:02:35.472Z,6.13
2022-11-20T06:05:01.244Z,6.68
2022-11-20T06:07:26.968Z,7.15
2022-11-20T06:09:52.697Z,6.38
2022-11-20T06:12:18.405Z,7.43
2022-11-20T06:14:44.085Z,7.45
2022-11-20T06:17:10.119Z,6.38
2022-11-20T06:19:35.780Z,6.68
2022-11-20T06:22:01.445Z,7.38
2022-11-20T06:24:27.216Z,7.55
2022-11-20T06:26:52.992Z,7.38
2022-11-20T06:29:18.775Z,6.93
2022-11-20T06:31:44.896Z,7.20
2022-11-20T06:34:11.905Z,6.82
2022-11-20T06:36:37.730Z,7.63
2022-11-20T06:39:03.727Z,7.50
2022-11-20T06:41:29.398Z,7.15
2022-11-20T06:43:55.413Z,7.28
2022-11-20T06:46:21.840Z,6.47
2022-11-20T06:48:48.416Z,6.30
2022-11-20T06:51:14.569Z,6.90
2022-11-20T06:53:40.349Z,7.32
2022-11-20T06:56:07.645Z,7.38
2022-11-20T06:58:34.809Z,8.48
2022-11-20T07:01:02.073Z,8.25
2022-11-20T07:03:27.903Z,7.55
2022-11-20T07:05:57.854Z,7.90
2022-11-20T07:08:24.760Z,7.78
2022-11-20T07:10:50.813Z,6.97
2022-11-20T07:13:16.656Z,8.40
2022-11-20T07:15:42.330Z,7.32
2022-11-20T07:18:08.112Z,6.85
2022-11-20T07:20:33.793Z,5.85
2022-11-20T07:22:59.667Z,7.05
2022-11-20T07:25:26.784Z,6.20
2022-11-20T07:27:52.669Z,6.70
2022-11-20T07:30:18.737Z,7.97
2022-11-20T07:32:50.654Z,6.82
2022-11-20T07:35:16.525Z,6.20
2022-11-20T07:37:42.208Z,6.70
2022-11-20T07:40:08.194Z,7.15
2022-11-20T07:42:33.876Z,11.02
2022-11-20T07:44:59.700Z,11.93
2022-11-20T07:47:25.404Z,10.02
2022-11-20T07:49:51.084Z,8.73
2022-11-20T07:52:16.765Z,9.55
2022-11-20T07:54:42.436Z,9.85
2022-11-20T07:57:08.124Z,8.93
2022-11-20T07:59:33.832Z,9.20
2022-11-20T08:01:59.486Z,7.28
2022-11-20T08:04:25.190Z,7.13
2022-11-20T08:06:52.749Z,12.13
2022-11-20T08:09:18.595Z,14.23
2022-11-20T08:12:02.846Z,16.63
2022-11-20T08:14:28.545Z,13.00
2022-11-20T08:16:54.241Z,9.43
2022-11-20T08:19:20.792Z,10.60
2022-11-20T08:21:46.661Z,8.70
2022-11-20T08:24:12.447Z,9.18
2022-11-20T08:26:39.630Z,8.65
2022-11-20T08:29:06.643Z,7.82
2022-11-20T08:31:32.769Z,13.57
2022-11-20T08:33:58.449Z,16.30
2022-11-20T08:36:25.449Z,12.82
2022-11-20T08:38:53.421Z,9.90
2022-11-20T08:41:28.417Z,8.80
2022-11-20T08:43:58.090Z,7.45
2022-11-20T08:46:34.445Z,7.15
2022-11-20T08:49:00.347Z,6.45
2022-11-20T08:51:26.036Z,6.28
2022-11-20T08:53:51.712Z,6.32
2022-11-20T08:56:18.089Z,5.93
2022-11-20T08:59:15.439Z,6.05
2022-11-20T09:01:29.804Z,5.70
2022-11-20T09:03:57.149Z,5.93
2022-11-20T09:06:22.806Z,7.60
2022-11-20T09:08:52.651Z,6.97
2022-11-20T09:11:18.390Z,7.55
2022-11-20T09:13:44.150Z,9.40
2022-11-20T09:17:21.985Z,11.77
2022-11-20T09:19:57.706Z,10.27
2022-11-20T09:22:23.360Z,12.55
2022-11-20T09:24:49.283Z,12.35
2022-11-20T09:27:20.114Z,12.90
2022-11-20T09:29:45.770Z,13.73
2022-11-20T09:32:11.486Z,9.98
2022-11-20T09:34:37.190Z,6.78
2022-11-20T09:37:06.246Z,7.95
2022-11-20T09:39:33.945Z,7.32
2022-11-20T09:42:04.726Z,8.52
2022-11-20T09:44:50.083Z,8.60
2022-11-20T09:47:54.889Z,9.50
2022-11-20T09:50:28.022Z,7.30
2022-11-20T09:53:16.799Z,7.90
2022-11-20T09:55:42.736Z,9.65
2022-11-20T09:58:29.620Z,11.18
2022-11-20T10:01:01.230Z,9.57
2022-11-20T10:03:57.098Z,9.02
2022-11-20T10:06:30.406Z,8.07
2022-11-20T10:09:22.604Z,8.85
2022-11-20T10:12:11.704Z,9.38
2022-11-20T10:15:04.774Z,8.02
2022-11-20T10:17:57.842Z,8.55
2022-11-20T10:20:39.073Z,8.45
2022-11-20T10:23:25.983Z,9.50
2022-11-20T10:26:12.505Z,8.38
2022-11-20T10:29:08.829Z,8.98
2022-11-20T10:31:38.372Z,11.23
2022-11-20T10:34:26.969Z,10.00
2022-11-20T10:37:03.827Z,8.60
2022-11-20T10:39:51.134Z,8.63
2022-11-20T10:42:30.266Z,8.50
2022-11-20T10:45:09.453Z,8.27
2022-11-20T10:47:36.093Z,8.23
2022-11-20T10:50:06.277Z,9.02
2022-11-20T10:52:56.478Z,9.13
2022-11-20T10:55:33.161Z,7.85
2022-11-20T10:58:13.584Z,7.40
2022-11-20T11:00:39.660Z,6.53
2022-11-20T11:03:24.081Z,6.25
2022-11-20T11:06:05.788Z,4.40
2022-11-20T11:08:37.763Z,3.90
2022-11-20T11:11:20.578Z,2.33
2022-11-20T11:13:46.274Z,2.40
2022-11-20T11:16:26.616Z,2.22
2022-11-20T11:19:07.207Z,1.88
2022-11-20T11:21:32.992Z,1.63
2022-11-20T11:24:26.770Z,1.60
2022-11-20T11:26:59.349Z,1.70
2022-11-20T11:29:28.328Z,3.45
2022-11-20T11:32:21.894Z,4.85
2022-11-20T11:35:18.670Z,6.32
2022-11-20T11:37:47.362Z,6.07
2022-11-20T11:40:23.790Z,5.40
2022-11-20T11:43:38.099Z,4.55
2022-11-20T11:46:34.320Z,5.68
2022-11-20T11:49:09.202Z,5.38
2022-11-20T11:51:46.754Z,5.00
2022-11-20T11:54:28.503Z,4.65
2022-11-20T11:56:54.611Z,5.15
2022-11-20T11:59:46.154Z,4.32
2022-11-20T12:02:29.943Z,4.28
2022-11-20T12:05:09.005Z,4.25
2022-11-20T12:07:48.100Z,4.45
2022-11-20T12:10:32.533Z,4.50
2022-11-20T12:13:13.769Z,4.60
2022-11-20T12:15:43.295Z,5.47
2022-11-20T12:18:16.001Z,5.43
2022-11-20T12:20:53.488Z,4.97
2022-11-20T12:23:42.804Z,4.55
2022-11-20T12:26:38.034Z,4.90
2022-11-20T12:29:15.523Z,5.03
2022-11-20T12:31:55.463Z,5.30
2022-11-20T12:37:16.332Z,4.75
2022-11-20T12:39:43.370Z,4.65
2022-11-20T12:42:48.634Z,4.15
2022-11-20T12:45:29.603Z,3.92
2022-11-20T12:48:22.694Z,5.10
2022-11-20T12:51:18.908Z,5.35
2022-11-20T12:54:17.961Z,5.47
2022-11-20T12:56:51.239Z,4.72
2022-11-20T12:59:38.818Z,3.25
2022-11-20T13:02:30.728Z,3.80
2022-11-20T13:05:19.132Z,3.72
2022-11-20T13:07:45.236Z,3.70
2022-11-20T13:10:36.724Z,3.60
2022-11-20T13:13:17.326Z,3.90
2022-11-20T13:15:56.179Z,3.60
2022-11-20T13:18:22.002Z,3.50
2022-11-20T13:20:49.734Z,3.92
2022-11-20T13:26:02.777Z,3.60
2022-11-20T13:28:30.346Z,3.50
2022-11-20T13:30:58.337Z,3.30
2022-11-20T13:33:29.650Z,3.25
2022-11-20T13:36:01.790Z,3.35
2022-11-20T13:38:33.734Z,3.72
2022-11-20T13:41:24.101Z,3.80
2022-11-20T13:43:50.221Z,4.35
2022-11-20T13:46:16.042Z,3.90
2022-11-20T13:48:45.461Z,3.95
2022-11-20T13:51:29.301Z,4.00
2022-11-20T13:54:21.282Z,3.55
2022-11-20T13:57:14.258Z,4.20
2022-11-20T14:00:01.760Z,3.58
2022-11-20T14:02:30.192Z,3.70
2022-11-20T14:04:59.024Z,3.28
2022-11-20T14:07:39.676Z,3.78
2022-11-20T14:10:06.294Z,4.35
2022-11-20T14:12:33.861Z,3.97
2022-11-20T14:15:00.296Z,4.00
2022-11-20T14:17:28.760Z,4.13
2022-11-20T14:19:57.974Z,3.95
2022-11-20T14:22:26.491Z,4.13
2022-11-20T14:25:06.187Z,4.65
2022-11-20T14:27:36.634Z,4.28
2022-11-20T14:30:03.504Z,4.35
2022-11-20T14:32:31.318Z,4.10
2022-11-20T14:37:29.895Z,3.90
2022-11-20T14:39:56.561Z,4.45
2022-11-20T14:42:25.116Z,4.95
2022-11-20T14:44:53.157Z,4.45
2022-11-20T14:47:22.415Z,4.85
2022-11-20T14:49:49.864Z,4.22
2022-11-20T14:52:23.895Z,5.22
2022-11-20T14:54:51.625Z,5.03
2022-11-20T14:59:49.091Z,4.50
2022-11-20T15:02:15.161Z,4.88
2022-11-20T15:04:49.030Z,5.38
2022-11-20T15:10:00.975Z,5.85
2022-11-20T15:12:27.160Z,6.70
2022-11-20T15:14:52.909Z,5.00
2022-11-20T15:17:18.581Z,4.88
2022-11-20T15:19:44.270Z,5.40
2022-11-20T15:22:16.720Z,5.68
2022-11-20T15:24:42.711Z,4.82
2022-11-20T15:27:09.736Z,4.90
2022-11-20T15:29:35.418Z,4.38
2022-11-20T15:32:01.148Z,4.53
2022-11-20T15:34:27.358Z,4.53
2022-11-20T15:36:54.566Z,4.45
2022-11-20T15:39:20.656Z,4.63
2022-11-20T15:41:47.074Z,4.75
2022-11-20T15:44:12.762Z,7.18
2022-11-20T15:46:42.613Z,5.57
2022-11-20T15:49:13.985Z,5.53
2022-11-20T15:51:46.514Z,5.00
2022-11-20T15:54:13.565Z,5.38
2022-11-20T15:56:39.269Z,4.65
2022-11-20T15:59:04.939Z,4.57
2022-11-20T16:01:30.890Z,4.65
2022-11-20T16:03:56.695Z,4.90
2022-11-20T16:06:22.402Z,4.90
2022-11-20T16:08:48.099Z,4.75
2022-11-20T16:11:15.611Z,5.10
2022-11-20T16:14:00.334Z,5.57
2022-11-20T16:16:30.343Z,5.82
2022-11-20T16:18:56.953Z,5.80
2022-11-20T16:21:31.325Z,6.35
2022-11-20T16:24:01.785Z,6.65
2022-11-20T16:26:27.957Z,6.15
2022-11-20T16:28:54.129Z,10.65
2022-11-20T16:31:20.493Z,13.02
2022-11-20T16:34:02.568Z,13.48
2022-11-20T16:36:30.115Z,14.30
2022-11-20T16:39:00.874Z,10.88
2022-11-20T16:41:29.890Z,10.35
2022-11-20T16:43:58.128Z,10.52
2022-11-20T16:46:26.045Z,11.00
2022-11-20T16:48:55.873Z,14.02
2022-11-20T16:51:23.340Z,13.32
2022-11-20T16:53:52.774Z,11.77
2022-11-20T16:56:24.225Z,11.63
2022-11-20T16:58:50.594Z,8.98
2022-11-20T17:01:20.389Z,8.45
2022-11-20T17:03:53.159Z,8.40
2022-11-20T17:06:24.864Z,7.07
2022-11-20T17:08:50.927Z,6.40
2022-11-20T17:11:18.565Z,7.25
2022-11-20T17:13:45.044Z,7.28
2022-11-20T17:16:13.776Z,7.72
2022-11-20T17:18:40.248Z,8.60
2022-11-20T17:21:06.713Z,8.10
2022-11-20T17:23:34.559Z,8.43
2022-11-20T17:26:05.512Z,8.70
2022-11-20T17:28:31.733Z,9.20
2022-11-20T17:31:16.717Z,8.82
2022-11-20T17:33:44.590Z,8.70
2022-11-20T17:36:12.184Z,11.52
2022-11-20T17:38:37.970Z,9.57
2022-11-20T17:41:07.814Z,8.32
2022-11-20T17:43:36.379Z,9.27
2022-11-20T17:46:09.030Z,11.18
2022-11-20T17:48:35.357Z,12.30
2022-11-20T17:51:03.376Z,14.30
2022-11-20T17:53:32.797Z,11.75
2022-11-20T17:56:17.000Z,10.68
2022-11-20T17:58:42.805Z,11.10
2022-11-20T18:01:09.273Z,11.35
2022-11-20T18:03:35.737Z,15.43
2022-11-20T18:06:13.294Z,10.10
2022-11-20T18:08:39.349Z,9.15
2022-11-20T18:11:18.652Z,8.48
2022-11-20T18:14:04.917Z,7.47
2022-11-20T18:16:33.604Z,8.07
2022-11-20T18:18:59.565Z,11.45
2022-11-20T18:21:27.352Z,10.27
2022-11-20T18:23:54.222Z,10.85
2022-11-20T18:26:20.096Z,10.48
2022-11-20T18:28:46.108Z,10.45
2022-11-20T18:31:13.237Z,10.48
2022-11-20T18:33:39.195Z,10.27
2022-11-20T18:36:09.687Z,10.77
2022-11-20T18:38:35.805Z,9.90
2022-11-20T18:41:04.001Z,10.80
2022-11-20T18:43:49.371Z,11.32
2022-11-20T18:46:15.057Z,11.80
2022-11-20T18:48:41.239Z,12.00
2022-11-20T18:51:07.441Z,12.85
2022-11-20T18:53:35.989Z,15.23
2022-11-20T18:56:05.535Z,14.25
2022-11-20T18:58:31.298Z,14.23
2022-11-20T19:01:04.731Z,15.40
2022-11-20T19:03:30.433Z,16.73
2022-11-20T19:05:56.102Z,16.98
2022-11-20T19:08:21.810Z,16.55
2022-11-20T19:10:47.498Z,15.35
2022-11-20T19:13:13.198Z,14.38
2022-11-20T19:15:39.336Z,16.27
2022-11-20T19:18:05.964Z,19.90
2022-11-20T19:20:31.952Z,26.80
2022-11-20T19:22:57.713Z,22.20
2022-11-20T19:25:23.425Z,17.23
2022-11-20T19:27:49.125Z,14.18
2022-11-20T19:30:14.898Z,11.65
2022-11-20T19:32:40.575Z,10.95
2022-11-20T19:35:06.640Z,12.55
2022-11-20T19:37:33.542Z,11.82
2022-11-20T19:40:00.506Z,11.23
2022-11-20T19:42:26.239Z,10.15
2022-11-20T19:44:52.481Z,10.88
2022-11-20T19:47:18.140Z,10.32
2022-11-20T19:49:43.900Z,9.00
2022-11-20T19:52:10.056Z,9.02
2022-11-20T19:54:35.742Z,9.07
2022-11-20T19:57:01.455Z,9.85
2022-11-20T19:59:27.336Z,9.52
2022-11-20T20:01:53.093Z,8.82
2022-11-20T20:04:19.497Z,8.63
2022-11-20T20:06:45.201Z,7.80
2022-11-20T20:09:12.500Z,6.57
2022-11-20T20:11:39.071Z,6.53
2022-11-20T20:14:07.842Z,6.93
2022-11-20T20:16:34.528Z,7.55
2022-11-20T20:19:02.478Z,7.15
2022-11-20T20:21:29.778Z,6.55
2022-11-20T20:23:56.148Z,6.90
2022-11-20T20:26:26.751Z,7.90
2022-11-20T20:28:52.840Z,7.55
2022-11-20T20:31:20.974Z,6.65
2022-11-20T20:33:46.930Z,6.53
2022-11-20T20:36:15.616Z,6.30
2022-11-20T20:38:42.673Z,5.50
2022-11-20T20:41:08.380Z,4.18
2022-11-20T20:43:55.015Z,4.60
2022-11-20T20:46:20.800Z,4.00
2022-11-20T20:48:51.516Z,4.13
2022-11-20T20:51:19.966Z,3.75
2022-11-20T20:53:45.645Z,2.33
2022-11-20T20:56:11.369Z,2.60
2022-11-20T20:58:37.137Z,2.40
2022-11-20T21:01:06.159Z,2.20
2022-11-20T21:03:33.353Z,2.25
2022-11-20T21:05:59.152Z,2.38
2022-11-20T21:08:25.693Z,2.20
2022-11-20T21:10:53.512Z,1.70
2022-11-20T21:13:21.090Z,2.10
2022-11-20T21:15:49.752Z,1.88
2022-11-20T21:18:17.189Z,1.70
2022-11-20T21:21:03.156Z,1.92
2022-11-20T21:28:20.072Z,1.23
2022-11-20T21:30:46.535Z,1.20
2022-11-20T21:33:12.646Z,1.40
2022-11-20T21:35:38.369Z,1.35
2022-11-20T21:38:04.734Z,1.10
2022-11-20T21:40:30.393Z,1.77
2022-11-20T21:42:56.082Z,1.13
2022-11-20T21:45:21.924Z,1.75
2022-11-20T21:47:51.068Z,1.20
2022-11-20T21:50:17.887Z,0.90
2022-11-20T21:52:43.905Z,1.50
2022-11-20T21:55:10.248Z,1.50
2022-11-20T21:57:35.930Z,1.45
2022-11-20T22:00:03.689Z,1.27
2022-11-20T22:02:29.377Z,1.50
2022-11-20T22:04:55.252Z,1.40
2022-11-20T22:07:20.954Z,1.40
2022-11-20T22:09:46.651Z,1.60
2022-11-20T22:12:12.355Z,1.50
2022-11-20T22:14:38.090Z,1.42
2022-11-20T22:17:03.827Z,1.50
2022-11-20T22:19:29.524Z,1.50
2022-11-20T22:21:55.266Z,1.83
2022-11-20T22:24:22.650Z,1.70
2022-11-20T22:26:49.328Z,1.77
2022-11-20T22:29:17.579Z,1.90
2022-11-20T22:31:43.733Z,1.58
2022-11-20T22:34:11.816Z,1.80
2022-11-20T22:36:37.978Z,1.67
2022-11-20T22:39:04.691Z,1.25
2022-11-20T22:41:31.064Z,2.20
2022-11-20T22:44:01.872Z,2.10
2022-11-20T22:46:30.202Z,1.50
2022-11-20T22:49:00.758Z,1.40
2022-11-20T22:51:29.049Z,1.27
2022-11-20T22:53:55.086Z,1.00
2022-11-20T22:56:21.839Z,1.60
2022-11-20T22:58:50.204Z,1.10
2022-11-20T23:01:21.084Z,1.40
2022-11-20T23:03:51.841Z,1.23
2022-11-20T23:06:19.268Z,1.52
2022-11-20T23:08:45.350Z,1.15
2022-11-20T23:11:16.190Z,1.10
2022-11-20T23:13:43.089Z,1.25
2022-11-20T23:16:11.536Z,1.02
2022-11-20T23:18:37.287Z,0.90
2022-11-20T23:21:07.946Z,1.10
2022-11-20T23:23:33.640Z,0.90
2022-11-20T23:26:04.069Z,1.10
2022-11-20T23:28:29.843Z,1.10
2022-11-20T23:30:56.554Z,1.05
2022-11-20T23:33:22.230Z,1.05
2022-11-20T23:35:48.232Z,1.10
2022-11-20T23:38:13.906Z,1.00
2022-11-20T23:40:41.422Z,0.90
2022-11-20T23:45:43.627Z,0.80
2022-11-20T23:48:09.310Z,1.13
2022-11-20T23:50:35.465Z,1.05
2022-11-20T23:53:01.149Z,1.30
2022-11-20T23:55:27.221Z,1.05
2022-11-20T23:57:52.954Z,1.00
